• Join FlightAware (Why Join?)
  • Login
  • US Flag 
12:50AM EST


 

Airport Tracker/Info


-or-


 

Live Flight TrackerFlight Track Log ✈ SKW4472 ✈ 14-Apr-2013 ✈ KMEM - KMSP

Flight Track Log - Related Links

Times and Time Zones

All times are in EDT time to prevent confusion due to time zone crossing. See the SKW4472 flight status page for this flight to view local times or setup timezone preferences in your user account.

Time Position Orientation Groundspeed Altitude Reporting Facility
EDT Latitude Longitude Course Direction KTS MPH feet Rate Location/Type
07:52PM 35.0167 -89.9667 209° Southwest 153 176 1,300  Level KMEM
07:53PM 34.9667 -90.0000 209° Southwest 205 236 3,700 2,160 Climbing KMEM
07:54PM 34.9500 -90.1000 259° West 276 318 6,300 2,460 Climbing KMEM
07:56PM 35.0406 -90.2075 316° Northwest 281 323 11,300 2,520 Climbing Memphis Center
07:57PM 35.1344 -90.1972 North 290 334 13,700 2,280 Climbing Memphis Center
07:58PM 35.2306 -90.1739 11° North 324 373 15,900 2,040 Climbing Memphis Center
07:59PM 35.3181 -90.1536 11° North 340 391 17,800 2,040 Climbing Memphis Center
08:00PM 35.4161 -90.1278 12° North 360 414 20,000 1,980 Climbing Memphis Center
08:01PM 35.5203 -90.1019 11° North 360 414 21,800 1,500 Climbing Memphis Center
08:02PM 35.6244 -90.0761 11° North 375 432 23,000 900 Climbing Memphis Center
08:03PM 35.7328 -90.0528 10° North 388 447 23,700 1,440 Climbing Memphis Center
08:04PM 35.8497 -90.0600 357° North 399 459 25,900 1,140 Climbing Memphis Center
08:05PM 35.9644 -90.0672 357° North 405 466 26,000 780 Climbing Memphis Center
08:06PM 36.0833 -90.0797 355° North 420 483 27,500 1,500 Climbing Memphis Center
08:07PM 36.2042 -90.0894 356° North 427 491 29,100 1,440 Climbing Memphis Center
08:08PM 36.3231 -90.0994 356° North 422 486 30,400 1,200 Climbing Memphis Center
08:09PM 36.4419 -90.1094 356° North 422 486 31,600 1,260 Climbing Memphis Center
08:10PM 36.5586 -90.1192 356° North 422 486 33,000 1,200 Climbing Memphis Center
08:11PM 36.6733 -90.1344 354° North 422 486 34,000 480 Climbing Memphis Center
08:12PM 36.7900 -90.1469 355° North 422 486 34,000  Level Memphis Center
08:14PM 37.0403 -90.1669 356° North 406 467 34,000  Level Kansas City Center
08:15PM 37.1500 -90.1783 355° North 401 461 34,000  Level Kansas City Center
08:16PM 37.2600 -90.1900 355° North 397 457 34,000  Level Kansas City Center
08:17PM 37.3678 -90.2003 356° North 395 455 34,000  Level Kansas City Center
08:18PM 37.4769 -90.2200 352° North 396 456 34,000  Level Kansas City Center
08:19PM 37.5783 -90.2664 340° North 389 448 34,000  Level Kansas City Center
08:20PM 37.7025 -90.3183 342° North 391 450 34,000  Level Kansas City Center
08:21PM 37.8078 -90.3592 343° North 394 453 34,000  Level Kansas City Center
08:22PM 37.9144 -90.4022 342° North 400 460 34,000  Level Kansas City Center
08:23PM 38.0231 -90.4456 343° North 398 458 34,000  Level Kansas City Center
08:24PM 38.1300 -90.4886 342° North 397 457 34,000  Level Kansas City Center
08:25PM 38.2369 -90.5311 343° North 398 458 34,000  Level Kansas City Center
08:26PM 38.3439 -90.5758 342° North 402 463 34,000 60 Level Kansas City Center
08:27PM 38.4614 -90.6233 342° North 406 467 34,200 480 Climbing Kansas City Center
08:28PM 38.5711 -90.6683 342° North 411 473 35,000 360 Climbing Kansas City Center
08:29PM 38.7008 -90.7214 342° North 420 483 35,000  Level Kansas City Center
08:31PM 38.8144 -90.7683 342° North 424 488 35,000  Level Kansas City Center
08:32PM 38.9258 -90.8142 342° North 420 483 35,000  Level Kansas City Center
08:33PM 39.0356 -90.8592 342° North 415 478 35,000  Level Kansas City Center
08:34PM 39.1450 -90.9044 342° North 413 475 35,000 420 Level Kansas City Center
08:35PM 39.2528 -90.9511 341° North 411 473 35,900 480 Climbing Kansas City Center
08:36PM 39.3614 -90.9964 342° North 409 471 36,000  Climbing Kansas City Center
08:37PM 39.4761 -91.0439 342° North 423 487 36,000  Level Kansas City Center
08:38PM 39.6128 -91.0983 343° North 429 494 36,000  Level Kansas City Center
08:39PM 39.7233 -91.1464 342° North 422 486 36,000  Level Kansas City Center
08:40PM 39.8389 -91.1967 342° North 419 482 36,000  Level Kansas City Center
08:41PM 39.9486 -91.2431 342° North 419 482 36,000  Level Kansas City Center
08:42PM 40.0597 -91.2908 342° North 421 484 36,000  Level Kansas City Center
08:43PM 40.1708 -91.3378 342° North 423 487 36,000  Level Kansas City Center
08:44PM 40.2822 -91.3856 342° North 424 488 36,000  Level Kansas City Center
08:45PM 40.4153 -91.4425 342° North 425 489 36,000  Level Kansas City Center
08:45PM 40.4383 -91.4519 343° North 426 490 36,000  Level Chicago Center
08:46PM 40.5525 -91.5025 341° North 433 498 36,000  Level Chicago Center
08:47PM 40.6933 -91.5628 342° North 444 511 36,000  Level Chicago Center
08:48PM 40.8125 -91.6147 342° North 453 521 36,000  Level Chicago Center
08:49PM 40.9319 -91.6672 342° North 457 526 36,000  Level Chicago Center
08:50PM 41.0508 -91.7203 341° North 456 525 36,000  Level Chicago Center
08:51PM 41.1689 -91.7722 342° North 452 520 36,000  Level Chicago Center
08:52PM 41.2931 -91.8267 342° North 455 524 36,000  Level Chicago Center
08:53PM 41.4358 -91.8892 342° North 453 521 36,000  Level Chicago Center
08:54PM 41.5550 -91.9439 341° North 454 522 36,000  Level Chicago Center
08:56PM 41.6756 -91.9981 341° North 458 527 36,000  Level Chicago Center
08:57PM 41.7947 -92.0506 342° North 456 525 36,000  Level Chicago Center
08:58PM 41.9147 -92.1017 342° North 453 521 36,000  Level Chicago Center
08:59PM 42.0364 -92.1594 341° North 461 531 36,000  Level Chicago Center
09:00PM 42.1831 -92.2261 341° North 465 535 36,000  Level Chicago Center
09:00PM 42.2325 -92.2506 340° North 465 535 36,000  Level Minneapolis Center
09:01PM 42.3539 -92.3072 341° North 463 533 36,000  Level Minneapolis Center
09:02PM 42.4756 -92.3628 341° North 463 533 36,000 -1,020 Level Minneapolis Center
09:03PM 42.6136 -92.4544 334° Northwest 457 526 33,900 -1,920 Descending Minneapolis Center
09:04PM 42.7228 -92.5542 326° Northwest 469 540 32,100 -960 Descending Minneapolis Center
09:05PM 42.8317 -92.6528 326° Northwest 470 541 32,000 -480 Descending Minneapolis Center
09:06PM 42.9403 -92.7561 325° Northwest 476 548 31,200 -1,080 Descending Minneapolis Center
09:07PM 43.0536 -92.8608 326° Northwest 490 564 29,800 -1,440 Descending Minneapolis Center
09:08PM 43.1708 -92.9700 326° Northwest 509 586 28,300 -1,920 Descending Minneapolis Center
09:09PM 43.3125 -93.0794 331° Northwest 489 563 25,900 -2,400 Descending Minneapolis Center
09:10PM 43.4489 -93.1156 349° North 496 571 23,400 -2,700 Descending Minneapolis Center
09:11PM 43.5842 -93.1503 349° North 496 571 20,400 -3,000 Descending Minneapolis Center
09:13PM 43.7064 -93.1811 350° North 479 551 17,200 -3,060 Descending Minneapolis Center
09:14PM 43.8528 -93.2164 350° North 450 518 14,100 -2,760 Descending Minneapolis Center
09:14PM 43.9306 -93.2350 350° North 420 483 12,600 -2,100 Descending FAA TRACON SMA TRACON (SMA)
09:15PM 43.9667 -93.2389 356° North 422 486 12,000 -1,800 Descending FAA TRACON SMA TRACON (SMA)
09:15PM 44.0025 -93.2386 360° North 421 484 11,400 -2,100 Descending FAA TRACON SMA TRACON (SMA)
09:15PM 44.0464 -93.2361 North 412 474 10,600 -2,040 Descending FAA TRACON SMA TRACON (SMA)
09:16PM 44.0800 -93.2344 North 397 457 10,100 -960 Descending FAA TRACON SMA TRACON (SMA)
09:16PM 44.1131 -93.2308 North 388 447 10,000 -300 Descending FAA TRACON SMA TRACON (SMA)
09:16PM 44.1464 -93.2278 North 388 447 9,900 -180 Descending FAA TRACON SMA TRACON (SMA)
09:17PM 44.1883 -93.2250 North 391 450 9,900  Level FAA TRACON SMA TRACON (SMA)
09:17PM 44.2217 -93.2208 North 391 450 9,900  Level FAA TRACON SMA TRACON (SMA)
09:17PM 44.2556 -93.2172 North 392 451 9,900  Level FAA TRACON SMA TRACON (SMA)
09:18PM 44.2975 -93.2144 North 392 451 9,900  Level FAA TRACON SMA TRACON (SMA)
09:18PM 44.3311 -93.2117 North 393 452 9,900  Level FAA TRACON SMA TRACON (SMA)
09:18PM 44.3650 -93.2081 North 393 452 9,900  Level FAA TRACON SMA TRACON (SMA)
09:19PM 44.4069 -93.2039 North 393 452 9,900  Level FAA TRACON SMA TRACON (SMA)
09:19PM 44.4403 -93.1997 North 393 452 9,900  Level FAA TRACON SMA TRACON (SMA)
09:19PM 44.4739 -93.1967 North 392 451 9,900  Level FAA TRACON SMA TRACON (SMA)
09:20PM 44.5161 -93.1928 North 394 453 9,900  Level FAA TRACON SMA TRACON (SMA)
09:20PM 44.5486 -93.1894 North 384 442 9,900  Level FAA TRACON SMA TRACON (SMA)
09:20PM 44.5783 -93.1861 North 360 414 9,900  Level FAA TRACON SMA TRACON (SMA)
09:21PM 44.6128 -93.1839 North 326 375 9,900  Level FAA TRACON SMA TRACON (SMA)
09:21PM 44.6375 -93.1892 351° North 300 345 9,900 -180 Level FAA TRACON SMA TRACON (SMA)
09:21PM 44.6589 -93.2008 339° North 274 315 9,800 -900 Descending FAA TRACON SMA TRACON (SMA)
09:22PM 44.6839 -93.2161 337° Northwest 256 295 9,300 -1,560 Descending FAA TRACON SMA TRACON (SMA)
09:22PM 44.7044 -93.2289 336° Northwest 257 296 8,800 -1,380 Descending FAA TRACON SMA TRACON (SMA)
09:22PM 44.7247 -93.2414 336° Northwest 259 298 8,400 -1,200 Descending FAA TRACON SMA TRACON (SMA)
09:23PM 44.7500 -93.2572 336° Northwest 258 297 8,000 -780 Descending FAA TRACON SMA TRACON (SMA)
09:23PM 44.7700 -93.2703 335° Northwest 259 298 7,900 -180 Descending FAA TRACON SMA TRACON (SMA)
09:23PM 44.7903 -93.2833 335° Northwest 258 297 7,900  Level FAA TRACON SMA TRACON (SMA)
09:24PM 44.8142 -93.3019 331° Northwest 259 298 7,900  Level FAA TRACON SMA TRACON (SMA)
09:24PM 44.8292 -93.3236 314° West 251 289 7,900  Level FAA TRACON SMA TRACON (SMA)
09:24PM 44.8425 -93.3461 310° West 246 283 7,900  Level FAA TRACON SMA TRACON (SMA)
09:25PM 44.8564 -93.3686 311° West 246 283 7,900  Level FAA TRACON SMA TRACON (SMA)
09:25PM 44.8731 -93.3958 311° West 241 277 7,900 -300 Level FAA TRACON SMA TRACON (SMA)
09:25PM 44.8864 -93.4178 311° West 237 273 7,700 -900 Descending FAA TRACON SMA TRACON (SMA)
09:26PM 44.8992 -93.4375 312° West 225 259 7,300 -1,500 Descending FAA TRACON SMA TRACON (SMA)
09:26PM 44.9092 -93.4656 297° West 212 244 6,700 -1,500 Descending FAA TRACON SMA TRACON (SMA)
09:26PM 44.9158 -93.4881 293° West 203 234 6,300 -1,200 Descending FAA TRACON SMA TRACON (SMA)
09:27PM 44.9222 -93.5108 292° West 202 232 5,900 -600 Descending FAA TRACON SMA TRACON (SMA)
09:27PM 44.9303 -93.5386 292° West 200 230 5,900  Level FAA TRACON SMA TRACON (SMA)
09:27PM 44.9372 -93.5617 293° West 202 232 5,900  Level FAA TRACON SMA TRACON (SMA)
09:28PM 44.9436 -93.5836 292° West 200 230 5,900  Level FAA TRACON SMA TRACON (SMA)
09:28PM 44.9517 -93.6117 292° West 200 230 5,900  Level FAA TRACON SMA TRACON (SMA)
09:28PM 44.9583 -93.6347 292° West 203 234 5,900  Level FAA TRACON SMA TRACON (SMA)
09:29PM 44.9644 -93.6575 291° West 204 235 5,900 -600 Level FAA TRACON SMA TRACON (SMA)
09:29PM 44.9731 -93.6850 294° West 201 231 5,500 -1,200 Descending FAA TRACON SMA TRACON (SMA)
09:29PM 44.9792 -93.7075 291° West 199 229 5,100 -900 Descending FAA TRACON SMA TRACON (SMA)
09:30PM 44.9861 -93.7294 294° West 200 230 4,900 -300 Descending FAA TRACON SMA TRACON (SMA)
09:30PM 45.0031 -93.7481 322° Northwest 214 246 4,900  Level FAA TRACON SMA TRACON (SMA)
09:30PM 45.0214 -93.7508 354° North 219 252 4,900  Level FAA TRACON SMA TRACON (SMA)
09:31PM 45.0408 -93.7525 357° North 221 254 4,900  Level FAA TRACON SMA TRACON (SMA)
09:31PM 45.0586 -93.7500 North 221 254 4,900 120 Level FAA TRACON SMA TRACON (SMA)
09:31PM 45.0775 -93.7306 36° Northeast 220 253 5,000 120 Climbing FAA TRACON SMA TRACON (SMA)
09:32PM 45.0914 -93.7133 41° Northeast 217 250 5,000  Level FAA TRACON SMA TRACON (SMA)
09:32PM 45.0933 -93.6867 84° East 209 241 5,000  Level FAA TRACON SMA TRACON (SMA)
09:32PM 45.0847 -93.6700 126° Southeast 180 207 5,000  Level FAA TRACON SMA TRACON (SMA)
09:33PM 45.0747 -93.6550 133° Southeast 168 193 5,000  Level FAA TRACON SMA TRACON (SMA)
09:33PM 45.0631 -93.6364 132° Southeast 165 190 5,000  Level FAA TRACON SMA TRACON (SMA)
09:33PM 45.0553 -93.6181 121° Southeast 172 198 5,000  Level FAA TRACON SMA TRACON (SMA)
09:34PM 45.0472 -93.6006 123° Southeast 175 201 5,000  Level FAA TRACON SMA TRACON (SMA)
09:34PM 45.0367 -93.5794 125° Southeast 171 197 5,000  Level FAA TRACON SMA TRACON (SMA)
09:34PM 45.0294 -93.5619 120° Southeast 170 196 5,000  Level FAA TRACON SMA TRACON (SMA)
09:35PM 45.0219 -93.5439 120° Southeast 170 196 5,000  Level FAA TRACON SMA TRACON (SMA)
09:35PM 45.0125 -93.5222 122° Southeast 171 197 5,000  Level FAA TRACON SMA TRACON (SMA)
09:35PM 45.0053 -93.5042 119° Southeast 170 196 5,000  Level FAA TRACON SMA TRACON (SMA)
09:36PM 44.9975 -93.4872 123° Southeast 169 194 5,000 -180 Level FAA TRACON SMA TRACON (SMA)
09:36PM 44.9897 -93.4700 123° Southeast 168 193 4,900 -960 Descending FAA TRACON SMA TRACON (SMA)
09:36PM 44.9806 -93.4481 121° Southeast 170 196 4,400 -1,260 Descending FAA TRACON SMA TRACON (SMA)
09:37PM 44.9731 -93.4311 122° Southeast 167 192 4,100 -780 Descending FAA TRACON SMA TRACON (SMA)
09:37PM 44.9661 -93.4156 122° Southeast 156 180 3,900 -780 Descending FAA TRACON SMA TRACON (SMA)
09:37PM 44.9578 -93.3967 122° Southeast 148 170 3,600 -780 Descending FAA TRACON SMA TRACON (SMA)
09:38PM 44.9517 -93.3822 121° Southeast 140 161 3,400 -780 Descending FAA TRACON SMA TRACON (SMA)
09:38PM 44.9444 -93.3656 121° Southeast 131 151 3,100 -780 Descending FAA TRACON SMA TRACON (SMA)
09:38PM 44.9386 -93.3525 122° Southeast 126 145 2,900 -660 Descending FAA TRACON SMA TRACON (SMA)
09:39PM 44.9336 -93.3411 122° Southeast 116 133 2,700 -600 Descending FAA TRACON SMA TRACON (SMA)
09:39PM 44.9289 -93.3294 120° Southeast 112 129 2,500 -780 Descending FAA TRACON SMA TRACON (SMA)
09:39PM 44.9225 -93.3147 121° Southeast 114 131 2,200 -780 Descending FAA TRACON SMA TRACON (SMA)
09:40PM 44.9169 -93.3017 121° Southeast 122 140 2,000 -660 Descending FAA TRACON SMA TRACON (SMA)
09:40PM 44.9114 -93.2889 122° Southeast 125 144 1,800 -780 Descending FAA TRACON SMA TRACON (SMA)
09:40PM 44.9042 -93.2719 121° Southeast 130 150 1,500 -780 Descending FAA TRACON SMA TRACON (SMA)
09:41PM 44.8983 -93.2583 121° Southeast 132 152 1,300 -600 Descending FAA TRACON SMA TRACON (SMA)
09:41PM 44.8922 -93.2447 122° Southeast 132 152 1,100 -600 Descending FAA TRACON SMA TRACON (SMA)
09:43PM 44.8820 -93.2218 116° Southeast  Level Estimated